Main page
METAR-TAF:

METAR-TAF

Airports :

Grantley Adams International Airport

Bridgetown, Barbados

latitude: 13-04N, longitude: 059-29W, elevation: 50 m

Current weather observation

The report was made 36 minutes ago, at 21:00 UTC
Wind 11 kt from the East
Temperature 29°C
Humidity 79%
Pressure 1011 hPa
Visibility 10 km or more
Few clouds at a height of 1800 ft

METAR: TBPB 182100Z 09011KT 9999 FEW018 29/25 Q1011 NOSIG

Time: 17:36 (21:36 UTC)

Forecast

The report was made 4 hours and 36 minutes ago, at 17:00 UTC
Forecast valid from 18 at 18 UTC to 19 at 18 UTC
Wind 14 kt from the East
Visibility 10 km or more
Scattered clouds at a height of 1800 ft
Probability 30% :
Temporary
from 18 at 18 UTC to 19 at 18 UTC
Broken clouds at a height of 1500 ft
rain showers,

TAF: TBPB 181700Z 1818/1918 10014KT 9999 SCT018 PROB30 TEMPO 1818/1918 SHRA BKN015

Weather observations and forecasts of more than 4000 airports (METAR and TAF reports).

The available stations are represented by yellow and red dots on the map.

Hover mouse over dot to see the name of the station.

Then click to see weather observations and forecasts.

To change the map : click on the green buttons with a black cross to zoom in, on the green button with a dash to zoom out, or on the green arrows for adjacent maps.


METAR-TAF: